KANQ/ANQ METAR and TAF weather

Enter ICAO airport designator
Station Type Date Time Source
KANQ METAR 2021/03/02 03:15 UTC NOAA

KANQ 020315Z AUTO 32003G10KT 10SM CLR M06/M11 A3035 RMK AO2


Station Type Date Time Source
KANQ Decoded METAR 2021/03/02 03:15 UTC NOAA

Station name not available
Mar 01, 2021 - 10:15 PM EST / 2021.03.02 0315 UTC
Wind: from the NW (320 degrees) at 3 MPH (3 KT) gusting to 12 MPH (10 KT):0
Visibility: 10 mile(s):0
Sky conditions: clear
Temperature: 21 F (-6 C)
Dew Point: 12 F (-11 C)
Relative Humidity: 67%
Pressure (altimeter): 30.35 in. Hg (1027 hPa)
ob: KANQ 020315Z AUTO 32003G10KT 10SM CLR M06/M11 A3035 RMK AO2
cycle: 3

Station Type Date Time Source
KANQ TAF UTC NOAA

Error!

Example: see airport list